createdAt,value
2022-09-09T00:30:54.637Z,0.83
2022-09-09T00:33:22.011Z,0.73
2022-09-09T00:35:48.880Z,0.66
2022-09-09T00:38:15.722Z,0.65
2022-09-09T00:40:42.489Z,0.68
2022-09-09T00:43:09.069Z,0.78
2022-09-09T00:45:36.366Z,0.73
2022-09-09T00:48:02.875Z,0.69
2022-09-09T00:50:29.720Z,0.80
2022-09-09T00:52:58.648Z,0.93
2022-09-09T00:55:25.448Z,0.68
2022-09-09T01:00:33.610Z,0.66
2022-09-09T01:03:00.275Z,0.61
2022-09-09T01:05:26.768Z,0.59
2022-09-09T01:07:58.457Z,0.66
2022-09-09T01:10:26.804Z,0.60
2022-09-09T01:12:53.547Z,0.75
2022-09-09T01:15:20.356Z,0.69
2022-09-09T01:17:47.168Z,0.54
2022-09-09T01:20:14.145Z,0.63
2022-09-09T01:22:41.001Z,0.47
2022-09-09T01:25:08.303Z,0.72
2022-09-09T01:27:35.382Z,0.59
2022-09-09T01:30:02.731Z,0.62
2022-09-09T01:32:29.996Z,0.60
2022-09-09T01:34:58.771Z,0.60
2022-09-09T01:37:25.618Z,0.62
2022-09-09T01:39:52.912Z,0.61
2022-09-09T01:42:19.847Z,0.52
2022-09-09T01:44:46.331Z,0.59
2022-09-09T01:47:15.984Z,0.60
2022-09-09T01:49:43.270Z,0.60
2022-09-09T01:52:10.119Z,0.56
2022-09-09T01:54:36.646Z,0.56
2022-09-09T01:57:03.943Z,0.51
2022-09-09T01:59:30.767Z,0.58
2022-09-09T02:01:58.038Z,0.55
2022-09-09T02:04:26.303Z,0.62
2022-09-09T02:06:53.093Z,0.64
2022-09-09T02:09:19.904Z,0.55
2022-09-09T02:11:46.733Z,0.51
2022-09-09T02:14:13.517Z,0.52
2022-09-09T02:16:40.370Z,0.49
2022-09-09T02:19:07.425Z,0.50
2022-09-09T02:21:36.521Z,0.65
2022-09-09T02:24:03.662Z,0.40
2022-09-09T02:26:30.511Z,0.52
2022-09-09T02:28:58.037Z,0.51
2022-09-09T02:31:24.596Z,0.39
2022-09-09T02:33:53.183Z,0.52
2022-09-09T02:36:27.154Z,0.53
2022-09-09T02:38:53.925Z,0.52
2022-09-09T02:41:21.417Z,0.57
2022-09-09T02:43:48.658Z,0.47
2022-09-09T02:46:16.099Z,0.54
2022-09-09T02:48:43.026Z,0.49
2022-09-09T02:51:09.756Z,0.47
2022-09-09T02:53:36.942Z,0.58
2022-09-09T02:56:03.804Z,0.61
2022-09-09T02:58:31.104Z,0.64
2022-09-09T03:00:57.847Z,0.53
2022-09-09T03:03:31.903Z,0.45
2022-09-09T03:05:58.717Z,0.50
2022-09-09T03:08:32.576Z,0.59
2022-09-09T03:10:59.643Z,0.63
2022-09-09T03:13:26.154Z,0.55
2022-09-09T03:15:53.923Z,0.44
2022-09-09T03:18:20.473Z,0.54
2022-09-09T03:20:47.743Z,0.56
2022-09-09T03:23:15.899Z,0.59
2022-09-09T03:25:43.502Z,0.60
2022-09-09T03:28:10.110Z,0.63
2022-09-09T03:30:44.155Z,0.67
2022-09-09T03:33:11.180Z,0.69
2022-09-09T03:35:40.353Z,0.66
2022-09-09T03:38:07.843Z,0.74
2022-09-09T03:40:34.454Z,0.64
2022-09-09T03:43:03.018Z,0.60
2022-09-09T03:45:37.275Z,0.61
2022-09-09T03:48:06.379Z,0.65
2022-09-09T03:50:35.972Z,0.77
2022-09-09T03:53:10.015Z,0.69
2022-09-09T03:55:39.060Z,0.57
2022-09-09T03:58:13.210Z,0.70
2022-09-09T04:00:47.256Z,0.69
2022-09-09T04:03:15.398Z,0.82
2022-09-09T04:05:42.376Z,0.79
2022-09-09T04:08:09.183Z,0.64
2022-09-09T04:10:37.085Z,0.76
2022-09-09T04:13:03.962Z,0.82
2022-09-09T04:15:31.535Z,0.69
2022-09-09T04:17:58.167Z,0.76
2022-09-09T04:20:25.493Z,0.88
2022-09-09T04:22:52.214Z,0.90
2022-09-09T04:25:20.255Z,1.31
2022-09-09T04:27:47.863Z,0.96
2022-09-09T04:30:14.456Z,0.82
2022-09-09T04:32:42.138Z,0.78
2022-09-09T04:35:08.838Z,0.71
2022-09-09T04:37:35.532Z,0.92
2022-09-09T04:40:02.170Z,0.84
2022-09-09T04:42:29.331Z,0.71
2022-09-09T04:44:58.004Z,0.80
2022-09-09T04:47:24.587Z,0.89
2022-09-09T04:49:55.534Z,0.94
2022-09-09T04:52:22.010Z,0.95
2022-09-09T04:54:48.997Z,1.05
2022-09-09T04:57:18.756Z,1.00
2022-09-09T04:59:45.483Z,0.83
2022-09-09T05:02:12.286Z,1.08
2022-09-09T05:04:39.004Z,0.85
2022-09-09T05:07:06.281Z,0.98
2022-09-09T05:09:35.095Z,0.95
2022-09-09T05:12:01.727Z,0.88
2022-09-09T05:14:28.407Z,0.84
2022-09-09T05:16:55.020Z,0.98
2022-09-09T05:19:21.857Z,0.85
2022-09-09T05:21:48.476Z,1.10
2022-09-09T05:24:15.110Z,0.81
2022-09-09T05:26:41.836Z,0.90
2022-09-09T05:29:08.621Z,1.09
2022-09-09T05:31:37.727Z,1.07
2022-09-09T05:34:05.865Z,0.91
2022-09-09T05:36:32.668Z,0.97
2022-09-09T05:39:02.528Z,0.87
2022-09-09T05:41:30.388Z,1.06
2022-09-09T05:43:57.562Z,1.15
2022-09-09T05:46:25.072Z,0.86
2022-09-09T05:48:51.694Z,1.10
2022-09-09T05:51:19.056Z,0.94
2022-09-09T05:53:45.574Z,2.23
2022-09-09T05:56:12.248Z,1.21
2022-09-09T05:58:39.610Z,1.21
2022-09-09T06:01:06.184Z,1.13
2022-09-09T06:03:33.953Z,1.19
2022-09-09T06:06:00.784Z,1.26
2022-09-09T06:11:09.442Z,1.30
2022-09-09T06:13:36.787Z,1.26
2022-09-09T06:18:45.011Z,1.67
2022-09-09T06:21:22.585Z,1.78
2022-09-09T06:23:58.965Z,1.72
2022-09-09T06:26:27.639Z,1.40
2022-09-09T06:28:54.439Z,1.49
2022-09-09T06:31:22.859Z,1.33
2022-09-09T06:33:56.647Z,1.19
2022-09-09T06:36:25.825Z,1.45
2022-09-09T06:38:53.243Z,1.24
2022-09-09T06:41:20.374Z,1.21
2022-09-09T06:43:51.121Z,1.32
2022-09-09T06:46:18.027Z,1.60
2022-09-09T06:48:45.419Z,1.52
2022-09-09T06:51:14.636Z,1.67
2022-09-09T06:53:43.021Z,1.72
2022-09-09T06:59:05.187Z,1.23
2022-09-09T07:01:32.671Z,1.38
2022-09-09T07:04:00.896Z,1.31
2022-09-09T07:06:29.229Z,1.31
2022-09-09T07:08:56.746Z,1.45
2022-09-09T07:11:26.946Z,1.17
2022-09-09T07:13:53.591Z,1.17
2022-09-09T07:16:22.603Z,1.36
2022-09-09T07:18:51.200Z,1.25
2022-09-09T07:21:17.925Z,1.17
2022-09-09T07:23:46.699Z,1.09
2022-09-09T07:26:13.319Z,1.28
2022-09-09T07:28:41.845Z,1.16
2022-09-09T07:31:08.698Z,1.21
2022-09-09T07:33:35.389Z,1.23
2022-09-09T07:36:02.241Z,1.35
2022-09-09T07:38:31.965Z,1.30
2022-09-09T07:40:58.432Z,1.32
2022-09-09T07:43:24.948Z,1.62
2022-09-09T07:45:51.794Z,1.68
2022-09-09T07:48:18.356Z,1.11
2022-09-09T07:50:44.969Z,1.34
2022-09-09T07:53:13.517Z,1.27
2022-09-09T07:55:40.649Z,1.25
2022-09-09T07:58:09.507Z,1.35
2022-09-09T08:00:36.311Z,1.38
2022-09-09T08:03:02.880Z,1.38
2022-09-09T08:05:29.836Z,1.25
2022-09-09T08:07:56.393Z,1.51
2022-09-09T08:10:23.352Z,1.48
2022-09-09T08:13:07.754Z,1.32
2022-09-09T08:15:37.192Z,1.67
2022-09-09T08:18:07.348Z,1.54
2022-09-09T08:20:34.433Z,1.90
2022-09-09T08:23:01.326Z,2.10
2022-09-09T08:25:31.440Z,1.37
2022-09-09T08:27:59.083Z,1.70
2022-09-09T08:30:27.404Z,1.40
2022-09-09T08:32:54.171Z,1.30
2022-09-09T08:35:20.829Z,1.92
2022-09-09T08:37:51.532Z,1.75
2022-09-09T08:40:19.299Z,1.32
2022-09-09T08:42:46.228Z,1.49
2022-09-09T08:45:13.154Z,1.73
2022-09-09T08:47:42.215Z,1.40
2022-09-09T08:50:09.723Z,1.15
2022-09-09T08:52:36.553Z,1.79
2022-09-09T08:55:04.271Z,1.49
2022-09-09T08:57:31.115Z,1.28
2022-09-09T08:59:58.405Z,1.31
2022-09-09T09:02:25.304Z,1.40
2022-09-09T09:04:53.211Z,1.45
2022-09-09T09:07:24.662Z,1.73
2022-09-09T09:09:53.516Z,1.38
2022-09-09T09:12:20.459Z,1.43
2022-09-09T09:14:57.391Z,1.37
2022-09-09T09:20:36.473Z,1.55
2022-09-09T09:23:03.209Z,1.33
2022-09-09T09:25:29.988Z,1.22
2022-09-09T09:27:56.776Z,1.34
2022-09-09T09:30:29.490Z,1.11
2022-09-09T09:32:57.141Z,1.64
2022-09-09T09:35:25.728Z,1.19
2022-09-09T09:40:41.655Z,1.06
2022-09-09T09:43:11.975Z,1.18
2022-09-09T09:45:38.594Z,1.12
2022-09-09T09:48:07.474Z,1.28
2022-09-09T09:50:37.093Z,1.15
2022-09-09T09:53:03.791Z,1.21
2022-09-09T09:55:31.355Z,1.29
2022-09-09T09:57:58.816Z,1.29
2022-09-09T10:00:29.199Z,1.12
2022-09-09T10:02:55.800Z,1.17
2022-09-09T10:05:27.142Z,1.25
2022-09-09T10:07:54.399Z,0.95
2022-09-09T10:10:23.765Z,0.96
2022-09-09T10:12:50.541Z,1.21
2022-09-09T10:15:17.469Z,1.01
2022-09-09T10:17:44.924Z,1.00
2022-09-09T10:20:14.983Z,1.12
2022-09-09T10:22:49.703Z,1.14
2022-09-09T10:25:16.673Z,1.07
2022-09-09T10:27:43.275Z,0.99
2022-09-09T10:30:12.179Z,1.02
2022-09-09T10:32:38.682Z,1.36
2022-09-09T10:35:06.652Z,1.13
2022-09-09T10:37:33.218Z,1.02
2022-09-09T10:40:00.218Z,1.23
2022-09-09T10:42:27.119Z,1.20
2022-09-09T10:44:53.741Z,1.12
2022-09-09T10:47:21.290Z,1.06
2022-09-09T10:49:49.478Z,1.23
2022-09-09T10:52:17.857Z,1.04
2022-09-09T10:54:44.851Z,1.11
2022-09-09T10:57:14.153Z,1.16
2022-09-09T10:59:40.988Z,1.25
2022-09-09T11:02:08.827Z,1.30
2022-09-09T11:04:36.292Z,1.37
2022-09-09T11:07:02.986Z,1.26
2022-09-09T11:09:31.689Z,1.06
2022-09-09T11:11:58.441Z,1.10
2022-09-09T11:17:09.358Z,1.24
2022-09-09T11:19:42.436Z,2.92
2022-09-09T11:22:09.170Z,1.25
2022-09-09T11:24:37.786Z,1.39
2022-09-09T11:27:04.503Z,1.15
2022-09-09T11:29:33.585Z,1.04
2022-09-09T11:32:00.421Z,1.11
2022-09-09T11:34:30.404Z,1.22
2022-09-09T11:37:00.299Z,1.25
2022-09-09T11:39:26.851Z,1.08
2022-09-09T11:41:56.449Z,0.93
2022-09-09T11:44:23.331Z,1.04
2022-09-09T11:46:50.718Z,0.90
2022-09-09T11:49:18.359Z,0.99
2022-09-09T11:51:45.066Z,1.27
2022-09-09T11:54:12.667Z,0.91
2022-09-09T11:56:47.604Z,0.78
2022-09-09T11:59:16.336Z,1.26
2022-09-09T12:01:45.109Z,1.43
2022-09-09T12:04:12.760Z,1.11
2022-09-09T12:06:39.391Z,1.00
2022-09-09T12:09:06.094Z,1.01
2022-09-09T12:11:33.530Z,1.01
2022-09-09T12:14:00.495Z,1.10
2022-09-09T12:16:33.016Z,1.32
2022-09-09T12:19:02.263Z,0.81
2022-09-09T12:21:29.511Z,1.00
2022-09-09T12:23:57.289Z,0.78
2022-09-09T12:26:24.638Z,0.74
2022-09-09T12:28:53.831Z,0.66
2022-09-09T12:31:21.002Z,0.84
2022-09-09T12:33:48.953Z,0.74
2022-09-09T12:36:15.480Z,0.72
2022-09-09T12:38:42.356Z,0.75
2022-09-09T12:41:11.611Z,0.66
2022-09-09T12:43:38.481Z,0.78
2022-09-09T12:46:10.213Z,1.02
2022-09-09T12:48:37.739Z,1.14
2022-09-09T12:51:04.825Z,0.88
2022-09-09T12:53:31.899Z,0.74
2022-09-09T12:55:59.755Z,0.85
2022-09-09T12:58:26.351Z,0.78
2022-09-09T13:00:55.200Z,0.73
2022-09-09T13:03:24.496Z,1.08
2022-09-09T13:05:52.061Z,0.65
2022-09-09T13:08:19.007Z,0.64
2022-09-09T13:10:55.452Z,0.79
2022-09-09T13:13:25.429Z,0.89
2022-09-09T13:15:52.168Z,0.83
2022-09-09T13:18:19.828Z,0.69
2022-09-09T13:20:56.095Z,0.75
2022-09-09T13:23:25.963Z,0.57
2022-09-09T13:25:52.841Z,0.74
2022-09-09T13:28:19.648Z,0.84
2022-09-09T13:30:48.357Z,0.67
2022-09-09T13:33:15.509Z,0.63
2022-09-09T13:35:44.120Z,0.71
2022-09-09T13:38:11.041Z,0.67
2022-09-09T13:40:37.860Z,0.58
2022-09-09T13:43:04.401Z,0.77
2022-09-09T13:45:31.099Z,0.77
2022-09-09T13:48:00.060Z,0.75
2022-09-09T13:50:28.932Z,0.99
2022-09-09T13:52:55.677Z,0.80
2022-09-09T13:55:22.281Z,0.91
2022-09-09T13:57:49.173Z,0.93
2022-09-09T14:00:16.051Z,0.80
2022-09-09T14:02:42.675Z,0.81
2022-09-09T14:05:10.420Z,1.13
2022-09-09T14:07:37.153Z,0.80
2022-09-09T14:10:06.753Z,0.89
2022-09-09T14:12:35.672Z,0.88
2022-09-09T14:15:02.573Z,0.77
2022-09-09T14:17:29.449Z,0.97
2022-09-09T14:19:57.254Z,0.83
2022-09-09T14:22:23.979Z,0.89
2022-09-09T14:24:50.651Z,0.91
2022-09-09T14:27:17.885Z,0.90
2022-09-09T14:29:44.782Z,0.94
2022-09-09T14:32:12.827Z,0.81
2022-09-09T14:34:39.851Z,0.89
2022-09-09T14:37:07.024Z,0.96
2022-09-09T14:39:33.541Z,0.91
2022-09-09T14:42:01.435Z,0.89
2022-09-09T14:44:28.262Z,0.86
2022-09-09T14:46:55.548Z,1.04
2022-09-09T14:49:22.321Z,0.86
2022-09-09T14:51:55.805Z,0.91
2022-09-09T14:54:25.929Z,0.94
2022-09-09T14:56:52.501Z,0.87
2022-09-09T14:59:27.183Z,1.07
2022-09-09T15:01:57.486Z,0.84
2022-09-09T15:04:27.610Z,0.85
2022-09-09T15:06:57.120Z,0.98
2022-09-09T15:09:23.612Z,0.88
2022-09-09T15:11:50.868Z,1.10
2022-09-09T15:14:21.016Z,0.79
2022-09-09T15:16:54.734Z,0.87
2022-09-09T15:19:34.575Z,1.03
2022-09-09T15:22:04.714Z,0.87
2022-09-09T15:24:32.565Z,1.00
2022-09-09T15:27:14.051Z,0.86
2022-09-09T15:29:47.758Z,0.85
2022-09-09T15:32:27.310Z,0.80
2022-09-09T15:34:56.977Z,0.89
2022-09-09T15:37:24.151Z,0.89
2022-09-09T15:39:54.781Z,1.08
2022-09-09T15:42:21.856Z,1.05
2022-09-09T15:44:51.521Z,1.07
2022-09-09T15:50:16.783Z,1.20
2022-09-09T15:52:45.276Z,1.15
2022-09-09T15:55:11.924Z,0.97
2022-09-09T15:57:38.871Z,1.00
2022-09-09T16:02:53.183Z,0.88
2022-09-09T16:05:19.773Z,0.84
2022-09-09T16:10:33.057Z,0.99
2022-09-09T16:13:00.108Z,1.06
2022-09-09T16:15:29.312Z,0.92
2022-09-09T16:17:56.208Z,0.82
2022-09-09T16:20:22.841Z,1.17
2022-09-09T16:22:52.061Z,1.01
2022-09-09T16:25:18.782Z,1.26
2022-09-09T16:27:46.212Z,3.71
2022-09-09T16:30:15.301Z,0.87
2022-09-09T16:32:41.965Z,0.85
2022-09-09T16:35:09.448Z,1.02
2022-09-09T16:37:36.413Z,0.85
2022-09-09T16:40:04.347Z,0.98
2022-09-09T16:42:31.151Z,0.95
2022-09-09T16:45:00.500Z,0.96
2022-09-09T16:47:27.146Z,0.84
2022-09-09T16:52:51.428Z,0.96
2022-09-09T16:55:19.011Z,0.99
2022-09-09T16:57:46.049Z,0.91
2022-09-09T17:00:13.491Z,0.84
2022-09-09T17:02:40.206Z,0.93
2022-09-09T17:08:21.715Z,0.96
2022-09-09T17:10:57.819Z,1.01
2022-09-09T17:13:25.635Z,0.87
2022-09-09T17:15:58.666Z,1.34
2022-09-09T17:18:29.065Z,1.33
2022-09-09T17:20:56.139Z,1.17
2022-09-09T17:23:22.910Z,0.86
2022-09-09T17:31:56.005Z,1.00
2022-09-09T17:35:08.331Z,0.85
2022-09-09T17:37:34.831Z,0.98
2022-09-09T17:40:03.918Z,1.10
2022-09-09T17:42:31.312Z,0.96
2022-09-09T17:44:57.808Z,1.27
2022-09-09T17:47:27.374Z,1.21
2022-09-09T17:49:53.808Z,0.90
2022-09-09T17:52:21.299Z,0.84
2022-09-09T17:54:48.131Z,1.18
2022-09-09T18:00:15.919Z,1.74
2022-09-09T18:02:42.493Z,1.26
2022-09-09T18:05:09.414Z,1.48
2022-09-09T18:07:38.659Z,1.01
2022-09-09T18:10:05.411Z,1.20
2022-09-09T18:12:32.215Z,1.11
2022-09-09T18:15:03.956Z,1.30
2022-09-09T18:17:33.551Z,1.49
2022-09-09T18:20:00.269Z,1.75
2022-09-09T18:28:30.022Z,1.22
2022-09-09T18:30:57.006Z,1.82
2022-09-09T18:33:23.631Z,1.26
2022-09-09T18:35:50.528Z,1.34
2022-09-09T18:38:19.620Z,1.14
2022-09-09T18:40:46.861Z,1.06
2022-09-09T18:43:13.608Z,1.31
2022-09-09T18:45:41.263Z,1.90
2022-09-09T18:48:09.779Z,1.47
2022-09-09T18:59:24.445Z,9.19
2022-09-09T19:04:54.710Z,1.79
2022-09-09T19:07:21.323Z,1.96
2022-09-09T19:16:17.188Z,54.89
2022-09-09T19:18:48.264Z,48.51
2022-09-09T19:21:16.099Z,73.82
2022-09-09T19:23:45.455Z,60.02
2022-09-09T19:26:12.489Z,17.11
2022-09-09T22:37:35.399Z,0.65
2022-09-09T22:40:02.266Z,0.81
2022-09-09T22:42:31.476Z,0.74
2022-09-09T22:44:58.244Z,0.63
2022-09-09T22:47:25.105Z,0.66
2022-09-09T22:49:52.487Z,0.76
2022-09-09T22:52:21.183Z,0.68
2022-09-09T22:54:48.559Z,0.78
2022-09-09T22:57:15.249Z,1.09
2022-09-09T22:59:42.004Z,0.53
2022-09-09T23:02:08.848Z,0.72
2022-09-09T23:04:35.601Z,0.73
2022-09-09T23:07:02.408Z,0.70
2022-09-09T23:09:29.047Z,0.72
2022-09-09T23:11:57.677Z,0.83
2022-09-09T23:14:24.187Z,0.68
2022-09-09T23:16:51.052Z,0.60
2022-09-09T23:19:17.650Z,0.59
2022-09-09T23:21:46.580Z,0.75
2022-09-09T23:24:14.131Z,0.65
2022-09-09T23:26:40.848Z,0.72
2022-09-09T23:29:09.965Z,0.75
2022-09-09T23:31:37.658Z,0.51
2022-09-09T23:34:04.640Z,0.70
2022-09-09T23:36:31.598Z,0.74
2022-09-09T23:38:58.305Z,0.69
2022-09-09T23:41:25.136Z,0.62
2022-09-09T23:43:51.704Z,0.64
2022-09-09T23:46:18.608Z,0.67
2022-09-09T23:48:45.243Z,0.90
2022-09-09T23:51:11.824Z,0.88
2022-09-09T23:53:40.930Z,0.84
2022-09-09T23:56:07.689Z,0.94
2022-09-09T23:58:36.362Z,0.91
